Key West NAF, FL

5:15 PM EDT on October 01, 2014 (GMT -0400)
Dade County-Homestead Regional | Change Station
CLOSE
Current Station
Airport
Location: Homestead AFB,
Elevation: 7 ft
Nearby Weather Stations

Elev 7 ft 25.49 °N, 80.38 °W | Updated 17 minutes ago

Partly Cloudy
Partly Cloudy
82 °F
Feels Like 89 °F
N
6
Wind Variable Wind from North

Today
High -- | Low -- °F
--% Chance of Precip.
Yesterday
High -- | Low -- °F
Precip. -- in
7:18 AM 7:13 PM
Waxing Crescent, 51% visible
Pressure 29.84 in
Visibility 10.0 miles
Clouds Clear
Heat Index 89 °F
Dew Point 76 °F
Humidity 80%
Rainfall 0.29 in
Snow Depth Not available.
UV 3 out of 12
Pollen 4.20 out of 12
Air Quality Not available.
Flu Activity Not available.
METAR KHST 302058Z AUTO 01005KT 10SM VCTS CLR 28/24 A2983 RMK AO2 LTG DSNT E-SE RAE2037 TSE2034 SLP105 P0010 60029 T02790242 55006

More Conditions Fewer Conditions

Pressure 29.84 in
Visibility 10.0 miles
Clouds Clear
Heat Index 89 °F
Dew Point 76 °F
Humidity 80%
Rainfall 0.29 in
Snow Depth Not available.
UV 3 out of 12
Pollen 4.20 out of 12
Air Quality Not available.
Flu Activity Not available.
METAR KHST 302058Z AUTO 01005KT 10SM VCTS CLR 28/24 A2983 RMK AO2 LTG DSNT E-SE RAE2037 TSE2034 SLP105 P0010 60029 T02790242 55006

More Conditions Fewer Conditions

Nowcast | as of 5:02 PM EDT on October 1, 2014

Showers are found mainly south of Cudjoe Key and Little Torch Key. Through 6 PM...this activity will generally move south-eastward at around 5 knots. The strongest activity will produce moderate rain with reduced visibility to around 4 miles.

×

10-Day Weather Forecast

Almanac

Astronomy

Oct. 01, 2014 Rise Set
Actual Time 7:18 AM EDT 7:13 PM EDT
Civil Twilight 6:56 AM EDT 7:36 PM EDT
Nautical Twilight 6:29 AM EDT 8:02 PM EDT
Astronomical Twilight 6:03 AM EDT 8:29 PM EDT
Moon 1:52 PM EDT 12:10 AM EDT
Length of Visible Light 12h 40m
Length of Day
11h 54m
Tomorrow will be 1m 24s shorter.
Waxing Crescent, 51% of the Moon is Illuminated
Today
Waxing Crescent
Oct 8
Full
Oct 15
Last Quarter
Oct 23
New
Oct 30
First Quarter

Today's Extremes

State Highs State Lows

Community

WunderPhotos

Upload Photos

1,758,058 photos uploaded!

WunderBlogs® & News

By Dr. Jeff Masters
Director of Meteorology, Weather Underground
By Kari Strenfel
Meteorologist, Weather Underground
By Christopher C. Burt
Weather Historian, Weather Underground
October 1, 2014
October 1, 2014
October 1, 2014

Nearby

Snow Depth

Station Depth Elevation
No new snow has been reported.

Earthquake Activity

City Distance Mag. Time & Date
No recent earthquake activity has been reported nearby.
Minimum magnitude displayed is 2.5.

Coastal Water Temperatures

Place Temperature
No Stations Reporting

Nearby Weather Stations